createdAt,value
2022-08-21T00:00:23.922Z,101731.72
2022-08-21T00:03:02.204Z,101727.44
2022-08-21T00:05:37.215Z,101727.59
2022-08-21T00:08:06.851Z,101716.75
2022-08-21T00:10:33.528Z,101730.34
2022-08-21T00:13:05.411Z,101727.59
2022-08-21T00:15:33.829Z,101725.19
2022-08-21T00:18:03.337Z,101718.44
2022-08-21T00:20:29.895Z,101712.25
2022-08-21T00:22:57.333Z,101722.59
2022-08-21T00:25:26.650Z,101714.84
2022-08-21T00:27:56.071Z,101716.75
2022-08-21T00:30:24.801Z,101716.75
2022-08-21T00:32:53.797Z,101718.78
2022-08-21T00:35:24.226Z,101713.81
2022-08-21T00:37:52.864Z,101707.88
2022-08-21T00:40:30.205Z,101712.38
2022-08-21T00:42:56.865Z,101716.31
2022-08-21T00:45:26.542Z,101722.00
2022-08-21T00:47:56.066Z,101710.63
2022-08-21T00:50:27.636Z,101713.72
2022-08-21T00:52:54.645Z,101712.34
2022-08-21T00:55:23.578Z,101707.69
2022-08-21T00:57:53.130Z,101708.03
2022-08-21T01:00:25.374Z,101692.00
2022-08-21T01:02:52.074Z,101704.06
2022-08-21T01:05:23.299Z,101704.25
2022-08-21T01:07:49.899Z,101701.31
2022-08-21T01:10:23.713Z,101713.69
2022-08-21T01:12:56.404Z,101705.41
2022-08-21T01:15:28.064Z,101717.84
2022-08-21T01:17:54.899Z,101713.50
2022-08-21T01:20:21.464Z,101708.34
2022-08-21T01:22:48.125Z,101716.94
2022-08-21T01:25:16.892Z,101709.88
2022-08-21T01:27:44.706Z,101712.63
2022-08-21T01:30:15.784Z,101715.72
2022-08-21T01:32:42.673Z,101712.44
2022-08-21T01:35:10.665Z,101713.63
2022-08-21T01:37:37.432Z,101712.06
2022-08-21T01:40:05.695Z,101705.16
2022-08-21T01:42:34.498Z,101712.59
2022-08-21T01:45:01.065Z,101718.25
2022-08-21T01:47:28.042Z,101711.88
2022-08-21T01:49:54.636Z,101712.19
2022-08-21T01:52:21.366Z,101714.25
2022-08-21T01:54:55.493Z,101709.94
2022-08-21T01:57:26.083Z,101703.75
2022-08-21T01:59:56.291Z,101701.63
2022-08-21T02:02:22.816Z,101700.63
2022-08-21T02:04:52.008Z,101698.88
2022-08-21T02:07:19.635Z,101696.50
2022-08-21T02:09:46.170Z,101686.16
2022-08-21T02:12:13.451Z,101698.53
2022-08-21T02:14:40.211Z,101693.03
2022-08-21T02:17:09.988Z,101688.00
2022-08-21T02:19:40.726Z,101677.69
2022-08-21T02:22:11.951Z,101674.06
2022-08-21T02:24:54.770Z,101678.88
2022-08-21T02:27:27.900Z,101686.09
2022-08-21T02:29:57.575Z,101680.94
2022-08-21T02:32:27.117Z,101689.19
2022-08-21T02:34:56.148Z,101677.97
2022-08-21T02:37:23.903Z,101675.34
2022-08-21T02:39:50.902Z,101691.72
2022-08-21T02:42:17.583Z,101684.94
2022-08-21T02:44:46.357Z,101682.34
2022-08-21T02:47:12.895Z,101667.38
2022-08-21T02:49:39.382Z,101679.09
2022-08-21T02:52:06.851Z,101673.75
2022-08-21T02:54:33.593Z,101675.97
2022-08-21T02:57:00.099Z,101672.50
2022-08-21T02:59:28.942Z,101673.53
2022-08-21T03:01:56.848Z,101664.91
2022-08-21T03:04:23.478Z,101673.69
2022-08-21T03:06:50.020Z,101678.50
2022-08-21T03:09:16.520Z,101676.94
2022-08-21T03:11:43.048Z,101666.56
2022-08-21T03:14:14.214Z,101658.66
2022-08-21T03:16:40.706Z,101667.63
2022-08-21T03:19:07.314Z,101665.56
2022-08-21T03:21:34.153Z,101661.06
2022-08-21T03:24:04.118Z,101656.63
2022-08-21T03:26:33.475Z,101658.97
2022-08-21T03:29:00.887Z,101657.97
2022-08-21T03:31:31.788Z,101659.84
2022-08-21T03:33:59.130Z,101649.34
2022-08-21T03:36:25.967Z,101654.84
2022-08-21T03:38:52.531Z,101644.00
2022-08-21T03:41:19.103Z,101645.16
2022-08-21T03:43:45.612Z,101648.25
2022-08-21T03:46:12.490Z,101642.91
2022-08-21T03:48:41.077Z,101642.91
2022-08-21T03:51:09.002Z,101638.59
2022-08-21T03:53:35.620Z,101635.16
2022-08-21T03:56:04.680Z,101639.63
2022-08-21T03:58:31.205Z,101643.41
2022-08-21T04:01:00.928Z,101636.19
2022-08-21T04:03:28.345Z,101645.59
2022-08-21T04:05:57.233Z,101645.75
2022-08-21T04:08:23.830Z,101650.56
2022-08-21T04:10:56.299Z,101652.63
2022-08-21T04:13:23.809Z,101645.84
2022-08-21T04:15:50.417Z,101648.06
2022-08-21T04:18:17.401Z,101653.19
2022-08-21T04:20:50.286Z,101658.69
2022-08-21T04:23:23.510Z,101665.19
2022-08-21T04:25:54.036Z,101666.38
2022-08-21T04:28:21.842Z,101670.16
2022-08-21T04:30:51.408Z,101668.59
2022-08-21T04:33:17.948Z,101661.84
2022-08-21T04:35:44.708Z,101673.19
2022-08-21T04:38:13.583Z,101667.88
2022-08-21T04:40:40.100Z,101676.41
2022-08-21T04:43:12.675Z,101672.28
2022-08-21T04:45:45.434Z,101673.53
2022-08-21T04:48:14.429Z,101680.91
2022-08-21T04:51:03.140Z,101685.22
2022-08-21T04:53:38.599Z,101678.53
2022-08-21T04:56:27.217Z,101672.72
2022-08-21T04:58:57.155Z,101669.66
2022-08-21T05:01:31.117Z,101672.63
2022-08-21T05:04:00.801Z,101674.06
2022-08-21T05:06:34.153Z,101680.09
2022-08-21T05:09:04.194Z,101677.56
2022-08-21T05:11:32.267Z,101680.84
2022-08-21T05:13:59.340Z,101682.28
2022-08-21T05:16:36.501Z,101677.78
2022-08-21T05:19:07.555Z,101682.31
2022-08-21T05:21:35.453Z,101681.00
2022-08-21T05:24:02.081Z,101687.22
2022-08-21T05:26:31.266Z,101689.19
2022-08-21T05:28:57.963Z,101692.00
2022-08-21T05:31:27.030Z,101686.31
2022-08-21T05:33:53.657Z,101689.84
2022-08-21T05:36:23.350Z,101690.19
2022-08-21T05:38:50.041Z,101679.59
2022-08-21T05:41:16.710Z,101680.09
2022-08-21T05:43:43.225Z,101681.16
2022-08-21T05:46:10.249Z,101684.31
2022-08-21T05:48:39.874Z,101672.78
2022-08-21T05:51:12.769Z,101683.59
2022-08-21T05:53:40.823Z,101673.78
2022-08-21T05:56:07.831Z,101681.06
2022-08-21T05:58:34.952Z,101674.00
2022-08-21T06:01:03.376Z,101674.41
2022-08-21T06:03:32.709Z,101669.78
2022-08-21T06:05:59.457Z,101666.97
2022-08-21T06:08:26.476Z,101677.53
2022-08-21T06:10:55.073Z,101664.78
2022-08-21T06:13:23.021Z,101670.44
2022-08-21T06:15:50.796Z,101670.91
2022-08-21T06:18:17.705Z,101676.72
2022-08-21T06:20:44.235Z,101683.56
2022-08-21T06:23:10.751Z,101678.31
2022-08-21T06:25:37.290Z,101675.44
2022-08-21T06:28:06.259Z,101679.44
2022-08-21T06:30:35.641Z,101676.94
2022-08-21T06:33:03.292Z,101672.66
2022-08-21T06:35:30.720Z,101673.78
2022-08-21T06:37:58.596Z,101677.72
2022-08-21T06:40:29.644Z,101678.69
2022-08-21T06:42:56.801Z,101679.81
2022-08-21T06:45:24.949Z,101680.09
2022-08-21T06:47:54.945Z,101678.00
2022-08-21T06:50:21.513Z,101676.97
2022-08-21T06:52:48.142Z,101678.91
2022-08-21T06:55:22.236Z,101688.53
2022-08-21T06:57:52.890Z,101682.69
2022-08-21T07:00:22.678Z,101681.75
2022-08-21T07:02:49.421Z,101684.00
2022-08-21T07:05:18.192Z,101672.47
2022-08-21T07:07:49.244Z,101675.84
2022-08-21T07:10:22.721Z,101677.19
2022-08-21T07:13:00.057Z,101665.16
2022-08-21T07:15:31.076Z,101673.25
2022-08-21T07:18:00.762Z,101670.78
2022-08-21T07:20:29.426Z,101680.03
2022-08-21T07:23:00.028Z,101671.97
2022-08-21T07:25:26.738Z,101666.50
2022-08-21T07:27:53.570Z,101663.97
2022-08-21T07:30:20.218Z,101675.25
2022-08-21T07:32:46.760Z,101667.53
2022-08-21T07:35:13.553Z,101673.09
2022-08-21T07:37:43.103Z,101672.69
2022-08-21T07:40:10.183Z,101672.09
2022-08-21T07:42:42.252Z,101669.44
2022-08-21T07:45:09.726Z,101668.38
2022-08-21T07:47:42.768Z,101668.09
2022-08-21T07:50:14.135Z,101678.94
2022-08-21T07:52:43.651Z,101671.16
2022-08-21T07:55:18.179Z,101662.50
2022-08-21T07:57:46.892Z,101667.91
2022-08-21T08:00:18.801Z,101670.00
2022-08-21T08:02:50.391Z,101670.00
2022-08-21T08:05:19.116Z,101665.25
2022-08-21T08:07:45.936Z,101668.78
2022-08-21T08:10:12.952Z,101662.94
2022-08-21T08:12:41.570Z,101659.00
2022-08-21T08:15:12.982Z,101662.78
2022-08-21T08:17:41.774Z,101662.97
2022-08-21T08:20:11.287Z,101663.28
2022-08-21T08:22:42.700Z,101658.09
2022-08-21T08:25:12.056Z,101655.59
2022-08-21T08:27:38.756Z,101644.84
2022-08-21T08:30:07.892Z,101652.97
2022-08-21T08:32:34.507Z,101661.13
2022-08-21T08:35:01.276Z,101658.59
2022-08-21T08:37:34.695Z,101655.66
2022-08-21T08:40:03.518Z,101649.25
2022-08-21T08:42:36.952Z,101655.84
2022-08-21T08:45:13.915Z,101639.25
2022-08-21T08:47:48.401Z,101641.13
2022-08-21T08:50:22.701Z,101647.66
2022-08-21T08:53:01.482Z,101645.84
2022-08-21T08:55:38.232Z,101641.81
2022-08-21T08:58:05.086Z,101639.81
2022-08-21T09:00:34.281Z,101637.38
2022-08-21T09:03:04.375Z,101642.16
2022-08-21T09:05:45.927Z,101630.66
2022-08-21T09:08:26.612Z,101623.63
2022-08-21T09:11:10.486Z,101629.56
2022-08-21T09:13:52.428Z,101627.69
2022-08-21T09:17:00.374Z,101630.00
2022-08-21T09:19:44.728Z,101625.47
2022-08-21T09:22:26.179Z,101629.91
2022-08-21T09:25:44.620Z,101618.94
2022-08-21T09:28:15.053Z,101620.56
2022-08-21T09:30:42.338Z,101631.84
2022-08-21T09:33:13.729Z,101627.97
2022-08-21T09:35:52.933Z,101630.28
2022-08-21T09:38:30.656Z,101631.41
2022-08-21T09:41:03.584Z,101626.44
2022-08-21T09:43:31.261Z,101635.09
2022-08-21T09:46:20.924Z,101640.63
2022-08-21T09:48:51.112Z,101633.78
2022-08-21T09:51:33.574Z,101635.53
2022-08-21T09:54:05.975Z,101635.09
2022-08-21T09:56:59.779Z,101633.38
2022-08-21T09:59:36.761Z,101632.00
2022-08-21T10:02:20.115Z,101628.09
2022-08-21T10:04:52.401Z,101628.72
2022-08-21T10:07:23.903Z,101622.28
2022-08-21T10:10:10.774Z,101615.00
2022-08-21T10:13:15.810Z,101622.69
2022-08-21T10:16:01.101Z,101626.03
2022-08-21T10:18:36.860Z,101629.69
2022-08-21T10:21:19.313Z,101631.00
2022-08-21T10:24:06.043Z,101632.28
2022-08-21T10:26:51.303Z,101629.16
2022-08-21T10:29:25.887Z,101625.03
2022-08-21T10:32:04.022Z,101619.44
2022-08-21T10:34:40.070Z,101616.38
2022-08-21T10:37:25.806Z,101618.22
2022-08-21T10:40:01.547Z,101618.97
2022-08-21T10:42:50.971Z,101622.88
2022-08-21T10:45:32.056Z,101616.25
2022-08-21T10:48:05.571Z,101614.41
2022-08-21T10:50:54.873Z,101614.03
2022-08-21T10:53:42.481Z,101615.16
2022-08-21T10:56:34.631Z,101620.69
2022-08-21T10:59:15.664Z,101612.31
2022-08-21T11:02:01.950Z,101613.53
2022-08-21T11:04:49.521Z,101602.16
2022-08-21T11:07:36.968Z,101607.34
2022-08-21T11:10:13.802Z,101598.31
2022-08-21T11:12:45.986Z,101602.13
2022-08-21T11:15:28.917Z,101596.00
2022-08-21T11:18:24.066Z,101599.84
2022-08-21T11:21:13.976Z,101598.38
2022-08-21T11:23:55.427Z,101601.63
2022-08-21T11:26:51.274Z,101594.66
2022-08-21T11:29:25.583Z,101599.41
2022-08-21T11:32:09.217Z,101601.31
2022-08-21T11:34:44.711Z,101591.09
2022-08-21T11:37:14.013Z,101589.50
2022-08-21T11:39:51.627Z,101596.28
2022-08-21T11:42:31.218Z,101599.88
2022-08-21T11:45:37.556Z,101589.38
2022-08-21T11:51:05.970Z,101599.25
2022-08-21T11:53:54.414Z,101604.69
2022-08-21T11:56:45.246Z,101605.41
2022-08-21T11:59:47.988Z,101615.19
2022-08-21T12:02:24.624Z,101608.13
2022-08-21T12:05:08.184Z,101609.03
2022-08-21T12:07:47.701Z,101611.13
2022-08-21T12:10:23.496Z,101611.38
2022-08-21T12:12:51.307Z,101608.97
2022-08-21T12:15:31.337Z,101607.50
2022-08-21T12:18:07.319Z,101615.50
2022-08-21T12:20:50.413Z,101613.59
2022-08-21T12:23:31.917Z,101599.91
2022-08-21T12:26:23.575Z,101605.53
2022-08-21T12:28:52.230Z,101601.13
2022-08-21T12:31:27.305Z,101604.69
2022-08-21T12:34:06.454Z,101603.59
2022-08-21T12:36:50.820Z,101599.25
2022-08-21T12:39:25.756Z,101600.34
2022-08-21T12:42:02.201Z,101600.16
2022-08-21T12:44:41.772Z,101593.31
2022-08-21T12:47:51.337Z,101591.47
2022-08-21T12:50:25.790Z,101593.44
2022-08-21T12:53:00.740Z,101608.00
2022-08-21T12:55:33.544Z,101599.22
2022-08-21T12:58:00.969Z,101609.88
2022-08-21T13:00:30.855Z,101602.19
2022-08-21T13:02:58.481Z,101611.13
2022-08-21T13:05:35.427Z,101605.72
2022-08-21T13:08:12.081Z,101609.75
2022-08-21T13:10:41.356Z,101612.34
2022-08-21T13:13:13.479Z,101608.97
2022-08-21T13:15:47.430Z,101609.81
2022-08-21T13:18:28.758Z,101607.50
2022-08-21T13:21:12.069Z,101615.75
2022-08-21T13:23:39.134Z,101612.09
2022-08-21T13:26:20.289Z,101611.56
2022-08-21T13:28:48.462Z,101613.03
2022-08-21T13:31:27.906Z,101608.16
2022-08-21T13:33:56.197Z,101605.75
2022-08-21T13:36:34.706Z,101599.53
2022-08-21T13:39:03.181Z,101596.06
2022-08-21T13:41:35.993Z,101600.69
2022-08-21T13:44:19.915Z,101607.25
2022-08-21T13:46:49.281Z,101607.69
2022-08-21T13:49:20.086Z,101613.38
2022-08-21T13:51:47.685Z,101612.81
2022-08-21T13:54:34.626Z,101610.78
2022-08-21T13:57:01.680Z,101619.31
2022-08-21T13:59:34.280Z,101607.50
2022-08-21T14:02:05.302Z,101611.56
2022-08-21T14:04:44.075Z,101607.41
2022-08-21T14:07:29.872Z,101602.94
2022-08-21T14:09:56.796Z,101599.78
2022-08-21T14:12:43.155Z,101589.78
2022-08-21T14:15:14.135Z,101591.81
2022-08-21T14:17:42.610Z,101583.63
2022-08-21T14:20:34.984Z,101586.09
2022-08-21T14:23:01.868Z,101581.00
2022-08-21T14:25:44.046Z,101589.91
2022-08-21T14:28:22.346Z,101591.97
2022-08-21T14:30:55.970Z,101596.38
2022-08-21T14:33:32.430Z,101581.25
2022-08-21T14:35:59.667Z,101597.19
2022-08-21T14:38:28.129Z,101595.75
2022-08-21T14:40:59.820Z,101595.50
2022-08-21T14:43:29.365Z,101584.66
2022-08-21T14:45:58.783Z,101590.66
2022-08-21T14:48:27.518Z,101588.47
2022-08-21T14:50:58.408Z,101589.69
2022-08-21T14:53:26.892Z,101598.19
2022-08-21T14:56:05.724Z,101591.53
2022-08-21T14:58:34.118Z,101586.56
2022-08-21T15:01:04.451Z,101600.53
2022-08-21T15:03:32.014Z,101598.72
2022-08-21T15:05:59.400Z,101595.94
2022-08-21T15:08:26.105Z,101600.47
2022-08-21T15:11:11.128Z,101590.84
2022-08-21T15:13:39.890Z,101596.69
2022-08-21T15:16:07.271Z,101597.91
2022-08-21T15:18:33.915Z,101601.31
2022-08-21T15:21:00.491Z,101606.03
2022-08-21T15:23:27.031Z,101607.50
2022-08-21T15:25:54.353Z,101599.69
2022-08-21T15:28:23.661Z,101601.75
2022-08-21T15:30:50.715Z,101607.25
2022-08-21T15:33:18.238Z,101610.75
2022-08-21T15:35:47.011Z,101609.69
2022-08-21T15:38:14.914Z,101614.56
2022-08-21T15:40:52.070Z,101612.47
2022-08-21T15:43:41.102Z,101599.00
2022-08-21T15:46:11.629Z,101588.03
2022-08-21T15:48:38.254Z,101607.16
2022-08-21T15:51:04.992Z,101596.94
2022-08-21T15:53:36.189Z,101607.28
2022-08-21T15:56:03.992Z,101607.75
2022-08-21T15:58:30.677Z,101610.09
2022-08-21T16:01:00.697Z,101606.03
2022-08-21T16:03:30.038Z,101609.56
2022-08-21T16:05:58.101Z,101603.72
2022-08-21T16:08:25.964Z,101612.50
2022-08-21T16:10:58.038Z,101612.09
2022-08-21T16:13:28.208Z,101605.13
2022-08-21T16:16:00.201Z,101599.56
2022-08-21T16:18:27.866Z,101604.69
2022-08-21T16:20:55.782Z,101606.50
2022-08-21T16:23:23.434Z,101612.94
2022-08-21T16:25:51.517Z,101617.78
2022-08-21T16:28:21.070Z,101610.19
2022-08-21T16:30:51.139Z,101609.78
2022-08-21T16:33:23.532Z,101611.97
2022-08-21T16:35:50.050Z,101613.38
2022-08-21T16:38:17.018Z,101609.84
2022-08-21T16:40:43.706Z,101611.69
2022-08-21T16:43:10.387Z,101604.25
2022-08-21T16:45:38.297Z,101602.53
2022-08-21T16:48:09.632Z,101601.75
2022-08-21T16:50:37.868Z,101597.50
2022-08-21T16:53:05.587Z,101604.72
2022-08-21T16:55:32.526Z,101609.69
2022-08-21T16:58:01.029Z,101617.13
2022-08-21T17:00:27.620Z,101611.84
2022-08-21T17:02:55.759Z,101600.81
2022-08-21T17:05:22.760Z,101611.78
2022-08-21T17:07:49.583Z,101608.84
2022-08-21T17:10:17.223Z,101590.38
2022-08-21T17:12:57.137Z,101615.44
2022-08-21T17:15:29.669Z,101612.47
2022-08-21T17:17:56.614Z,101605.69
2022-08-21T17:20:26.250Z,101607.00
2022-08-21T17:22:54.086Z,101577.16
2022-08-21T17:25:20.692Z,101605.84
2022-08-21T17:27:49.217Z,101606.75
2022-08-21T17:30:19.866Z,101610.19
2022-08-21T17:32:51.251Z,101604.66
2022-08-21T17:35:17.928Z,101605.09
2022-08-21T17:37:44.477Z,101618.84
2022-08-21T17:40:14.434Z,101592.41
2022-08-21T17:42:43.780Z,101613.78
2022-08-21T17:45:12.928Z,101608.66
2022-08-21T17:47:42.282Z,101611.91
2022-08-21T17:50:11.640Z,101607.63
2022-08-21T17:52:39.233Z,101605.50
2022-08-21T17:55:08.943Z,101605.72
2022-08-21T17:57:39.611Z,101614.09
2022-08-21T18:00:12.230Z,101607.88
2022-08-21T18:02:43.686Z,101608.31
2022-08-21T18:05:12.068Z,101614.34
2022-08-21T18:07:39.406Z,101615.00
2022-08-21T18:10:13.224Z,101604.50
2022-08-21T18:12:41.726Z,101614.41
2022-08-21T18:15:10.854Z,101612.06
2022-08-21T18:17:37.531Z,101614.81
2022-08-21T18:20:06.293Z,101605.44
2022-08-21T18:22:34.938Z,101614.22
2022-08-21T18:25:01.556Z,101615.31
2022-08-21T18:27:29.819Z,101612.09
2022-08-21T18:29:58.940Z,101598.22
2022-08-21T18:32:31.314Z,101609.97
2022-08-21T18:35:00.585Z,101608.06
2022-08-21T18:37:29.492Z,101603.16
2022-08-21T18:39:56.363Z,101613.22
2022-08-21T18:42:28.704Z,101614.97
2022-08-21T18:45:03.391Z,101624.78
2022-08-21T18:47:39.876Z,101623.91
2022-08-21T18:52:57.480Z,101629.91
2022-08-21T18:55:24.774Z,101631.41
2022-08-21T18:57:52.479Z,101627.56
2022-08-21T19:00:23.730Z,101619.16
2022-08-21T19:02:52.182Z,101629.25
2022-08-21T19:05:21.041Z,101629.66
2022-08-21T19:07:50.997Z,101630.06
2022-08-21T19:10:24.352Z,101632.44
2022-08-21T19:13:07.266Z,101626.44
2022-08-21T19:15:36.222Z,101637.56
2022-08-21T19:18:05.171Z,101627.69
2022-08-21T19:20:37.281Z,101634.97
2022-08-21T19:23:12.883Z,101643.06
2022-08-21T19:25:44.998Z,101638.38
2022-08-21T19:28:15.611Z,101640.00
2022-08-21T19:30:51.141Z,101647.97
2022-08-21T19:33:25.730Z,101645.97
2022-08-21T19:35:52.965Z,101649.38
2022-08-21T19:38:20.298Z,101642.75
2022-08-21T19:40:47.103Z,101639.53
2022-08-21T19:43:14.154Z,101638.22
2022-08-21T19:45:40.949Z,101642.47
2022-08-21T19:48:09.976Z,101649.75
2022-08-21T19:50:37.077Z,101652.28
2022-08-21T19:53:08.937Z,101642.84
2022-08-21T19:55:53.301Z,101646.91
2022-08-21T19:58:36.183Z,101649.25
2022-08-21T20:01:11.549Z,101648.78
2022-08-21T20:03:44.541Z,101647.69
2022-08-21T20:06:11.375Z,101653.44
2022-08-21T20:08:37.958Z,101661.13
2022-08-21T20:11:05.317Z,101658.97
2022-08-21T20:13:33.978Z,101655.56
2022-08-21T20:16:14.023Z,101666.59
2022-08-21T20:18:42.956Z,101662.72
2022-08-21T20:21:13.209Z,101661.38
2022-08-21T20:23:48.702Z,101665.16
2022-08-21T20:26:16.652Z,101663.00
2022-08-21T20:28:44.654Z,101654.44
2022-08-21T20:31:11.299Z,101657.16
2022-08-21T20:33:42.103Z,101662.63
2022-08-21T20:36:09.439Z,101657.91
2022-08-21T20:38:36.955Z,101640.28
2022-08-21T20:41:09.955Z,101648.59
2022-08-21T20:43:47.956Z,101636.72
2022-08-21T20:46:22.632Z,101640.38
2022-08-21T20:48:50.038Z,101641.81
2022-08-21T20:51:36.029Z,101640.97
2022-08-21T20:54:05.647Z,101645.16
2022-08-21T20:56:32.901Z,101646.63
2022-08-21T20:59:12.065Z,101635.75
2022-08-21T21:01:39.602Z,101637.88
2022-08-21T21:04:43.078Z,101625.09
2022-08-21T21:07:16.508Z,101644.00
2022-08-21T21:09:48.997Z,101637.38
2022-08-21T21:12:28.173Z,101647.41
2022-08-21T21:15:05.362Z,101631.94
2022-08-21T21:17:45.818Z,101635.38
2022-08-21T21:20:30.294Z,101635.38
2022-08-21T21:23:13.773Z,101633.84
2022-08-21T21:25:53.992Z,101635.59
2022-08-21T21:29:02.699Z,101634.44
2022-08-21T21:31:31.080Z,101637.59
2022-08-21T21:33:59.569Z,101628.63
2022-08-21T21:40:09.121Z,101645.84
2022-08-21T21:43:17.080Z,101638.50
2022-08-21T21:45:49.641Z,101650.47
2022-08-21T21:48:37.949Z,101644.16
2022-08-21T21:51:20.140Z,101654.13
2022-08-21T21:54:00.563Z,101648.50
2022-08-21T21:56:40.440Z,101640.59
2022-08-21T21:59:31.487Z,101646.91
2022-08-21T22:02:13.503Z,101652.53
2022-08-21T22:04:52.235Z,101650.16
2022-08-21T22:07:21.476Z,101647.78
2022-08-21T22:10:05.751Z,101657.53
2022-08-21T22:12:49.575Z,101653.41
2022-08-21T22:15:27.944Z,101652.28
2022-08-21T22:18:11.305Z,101657.28
2022-08-21T22:21:05.288Z,101649.47
2022-08-21T22:23:42.080Z,101656.91
2022-08-21T22:26:14.540Z,101657.94
2022-08-21T22:28:44.135Z,101652.13
2022-08-21T22:31:24.388Z,101645.09
2022-08-21T22:34:18.425Z,101648.91
2022-08-21T22:36:59.314Z,101656.53
2022-08-21T22:39:38.812Z,101650.72
2022-08-21T22:42:14.106Z,101654.31
2022-08-21T22:44:56.651Z,101650.03
2022-08-21T22:47:33.751Z,101644.19
2022-08-21T22:50:05.399Z,101648.19
2022-08-21T22:52:35.861Z,101645.66
2022-08-21T22:55:25.706Z,101651.56
2022-08-21T22:58:09.807Z,101650.19
2022-08-21T23:00:51.676Z,101641.03
2022-08-21T23:03:32.562Z,101630.72
2022-08-21T23:06:03.203Z,101647.97
2022-08-21T23:08:39.695Z,101638.19
2022-08-21T23:11:23.464Z,101640.06
2022-08-21T23:13:53.115Z,101622.88
2022-08-21T23:16:36.698Z,101642.72
2022-08-21T23:19:08.735Z,101642.72
2022-08-21T23:21:35.651Z,101639.97
2022-08-21T23:24:32.563Z,101643.09
2022-08-21T23:27:21.210Z,101644.81
2022-08-21T23:30:07.385Z,101640.69
2022-08-21T23:32:52.410Z,101637.09
2022-08-21T23:35:57.754Z,101638.53
2022-08-21T23:38:51.266Z,101647.84
2022-08-21T23:41:34.463Z,101635.25
2022-08-21T23:44:16.077Z,101638.19
2022-08-21T23:46:54.711Z,101640.78
2022-08-21T23:49:45.896Z,101642.38
2022-08-21T23:52:42.919Z,101634.75
2022-08-21T23:55:30.698Z,101642.03
2022-08-21T23:58:39.657Z,101636.69
